< < Back
Terminal Aerodrome Forecast


Current Version              Previous Versions:   1  2  3  4  5  6  7  8  9  

Terminal Aerodrome Forecast

831
FTUS44 KBMX 271730
TAFTCL
TAF
KTCL 271730Z 2718/2818 18009G16KT P6SM BKN050 BKN250
     FM280000 16006KT P6SM BKN250=



Latest METAR

455
SAUS70 KWBC 272200 RRH
MTRTCL
METAR KTCL 272153Z 18010KT 9SM CLR 30/18 A2994 RMK AO2 SLP137
T03000178


USA.gov is the U.S. government's official web portal to all federal, state and local government web resources and services.